sensor_id;sensor_type;location;lat;lon;timestamp;pressure;altitude;pressure_sealevel;temperature;humidity
40592;BME280;26301;42.832;23.918;2022-12-05T00:01:51;94018.19;;;1.72;100.00
40592;BME280;26301;42.832;23.918;2022-12-05T00:04:17;94047.31;;;1.86;100.00
40592;BME280;26301;42.832;23.918;2022-12-05T00:06:44;94059.25;;;1.93;100.00
40592;BME280;26301;42.832;23.918;2022-12-05T00:09:11;94024.84;;;1.73;100.00
40592;BME280;26301;42.832;23.918;2022-12-05T00:11:40;94018.31;;;1.70;100.00
40592;BME280;26301;42.832;23.918;2022-12-05T00:14:07;94057.00;;;1.98;100.00
40592;BME280;26301;42.832;23.918;2022-12-05T00:16:35;94057.81;;;1.99;100.00
40592;BME280;26301;42.832;23.918;2022-12-05T00:19:02;94052.72;;;1.99;100.00
40592;BME280;26301;42.832;23.918;2022-12-05T00:21:31;94034.88;;;1.91;100.00
40592;BME280;26301;42.832;23.918;2022-12-05T00:23:58;94049.03;;;2.01;100.00
40592;BME280;26301;42.832;23.918;2022-12-05T00:26:25;94047.44;;;2.00;100.00
40592;BME280;26301;42.832;23.918;2022-12-05T00:28:51;94039.19;;;1.90;100.00
40592;BME280;26301;42.832;23.918;2022-12-05T00:31:22;94009.91;;;1.78;100.00
40592;BME280;26301;42.832;23.918;2022-12-05T00:33:48;94026.78;;;1.87;100.00
40592;BME280;26301;42.832;23.918;2022-12-05T00:36:26;94025.81;;;1.88;100.00
40592;BME280;26301;42.832;23.918;2022-12-05T00:38:52;94011.31;;;1.80;100.00
40592;BME280;26301;42.832;23.918;2022-12-05T00:41:21;94011.47;;;1.71;100.00
40592;BME280;26301;42.832;23.918;2022-12-05T00:43:48;94050.31;;;1.97;100.00
40592;BME280;26301;42.832;23.918;2022-12-05T00:46:19;94044.91;;;2.00;100.00
40592;BME280;26301;42.832;23.918;2022-12-05T00:48:46;94035.22;;;1.96;100.00
40592;BME280;26301;42.832;23.918;2022-12-05T00:51:26;94022.94;;;1.83;100.00
40592;BME280;26301;42.832;23.918;2022-12-05T00:53:53;94050.78;;;2.01;100.00
40592;BME280;26301;42.832;23.918;2022-12-05T00:56:21;94052.22;;;2.03;100.00
40592;BME280;26301;42.832;23.918;2022-12-05T00:58:48;94045.22;;;1.97;100.00
40592;BME280;26301;42.832;23.918;2022-12-05T01:01:27;94052.88;;;2.05;100.00
40592;BME280;26301;42.832;23.918;2022-12-05T01:03:55;94040.13;;;1.97;100.00
40592;BME280;26301;42.832;23.918;2022-12-05T01:06:22;94048.56;;;2.06;100.00
40592;BME280;26301;42.832;23.918;2022-12-05T01:08:48;94056.03;;;2.08;100.00
40592;BME280;26301;42.832;23.918;2022-12-05T01:11:17;94015.47;;;1.81;100.00
40592;BME280;26301;42.832;23.918;2022-12-05T01:13:43;94051.13;;;2.06;100.00
40592;BME280;26301;42.832;23.918;2022-12-05T01:16:18;94030.13;;;1.96;100.00
40592;BME280;26301;42.832;23.918;2022-12-05T01:18:44;94050.00;;;2.09;100.00
40592;BME280;26301;42.832;23.918;2022-12-05T01:21:10;94044.91;;;2.09;100.00
40592;BME280;26301;42.832;23.918;2022-12-05T01:23:36;94049.81;;;2.10;100.00
40592;BME280;26301;42.832;23.918;2022-12-05T01:26:05;94042.69;;;2.05;100.00
40592;BME280;26301;42.832;23.918;2022-12-05T01:28:31;94047.13;;;2.12;100.00
40592;BME280;26301;42.832;23.918;2022-12-05T01:30:57;94021.66;;;2.03;100.00
40592;BME280;26301;42.832;23.918;2022-12-05T01:33:23;94008.63;;;1.90;100.00
40592;BME280;26301;42.832;23.918;2022-12-05T01:35:48;94038.84;;;2.10;100.00
40592;BME280;26301;42.832;23.918;2022-12-05T01:38:14;94036.47;;;2.08;100.00
40592;BME280;26301;42.832;23.918;2022-12-05T01:40:40;93990.47;;;1.85;100.00
40592;BME280;26301;42.832;23.918;2022-12-05T01:43:14;94024.84;;;2.05;100.00
40592;BME280;26301;42.832;23.918;2022-12-05T01:45:42;94021.00;;;2.01;100.00
40592;BME280;26301;42.832;23.918;2022-12-05T01:48:15;94025.78;;;2.04;100.00
40592;BME280;26301;42.832;23.918;2022-12-05T01:50:43;94022.91;;;2.08;100.00
40592;BME280;26301;42.832;23.918;2022-12-05T01:53:09;94010.34;;;1.98;100.00
40592;BME280;26301;42.832;23.918;2022-12-05T01:55:36;94007.78;;;1.98;100.00
40592;BME280;26301;42.832;23.918;2022-12-05T01:58:04;94025.97;;;2.11;100.00
40592;BME280;26301;42.832;23.918;2022-12-05T02:00:32;94026.28;;;2.08;100.00
40592;BME280;26301;42.832;23.918;2022-12-05T02:03:03;94017.66;;;2.09;100.00
40592;BME280;26301;42.832;23.918;2022-12-05T02:05:32;94020.34;;;2.08;100.00
40592;BME280;26301;42.832;23.918;2022-12-05T02:08:00;94010.66;;;2.03;100.00
40592;BME280;26301;42.832;23.918;2022-12-05T02:10:27;94009.22;;;2.00;100.00
40592;BME280;26301;42.832;23.918;2022-12-05T02:13:00;94000.00;;;1.91;100.00
40592;BME280;26301;42.832;23.918;2022-12-05T02:15:47;93991.41;;;1.92;100.00
40592;BME280;26301;42.832;23.918;2022-12-05T02:26:47;94003.94;;;2.10;100.00
40592;BME280;26301;42.832;23.918;2022-12-05T02:35:45;94010.16;;;2.16;100.00
40592;BME280;26301;42.832;23.918;2022-12-05T02:38:51;94012.09;;;2.14;100.00
40592;BME280;26301;42.832;23.918;2022-12-05T02:46:41;94016.88;;;2.09;100.00
40592;BME280;26301;42.832;23.918;2022-12-05T02:49:13;94014.66;;;2.05;100.00
40592;BME280;26301;42.832;23.918;2022-12-05T02:51:44;94017.19;;;2.05;100.00
40592;BME280;26301;42.832;23.918;2022-12-05T02:54:21;93995.22;;;1.96;100.00
40592;BME280;26301;42.832;23.918;2022-12-05T02:56:48;94013.22;;;2.11;100.00
40592;BME280;26301;42.832;23.918;2022-12-05T02:59:15;93993.16;;;2.08;100.00
40592;BME280;26301;42.832;23.918;2022-12-05T03:01:43;93994.09;;;2.07;100.00
40592;BME280;26301;42.832;23.918;2022-12-05T03:04:11;94002.69;;;2.06;100.00
40592;BME280;26301;42.832;23.918;2022-12-05T03:07:10;93995.69;;;2.00;100.00
40592;BME280;26301;42.832;23.918;2022-12-05T03:09:57;94002.53;;;2.08;100.00
40592;BME280;26301;42.832;23.918;2022-12-05T03:12:33;93958.31;;;1.84;100.00
40592;BME280;26301;42.832;23.918;2022-12-05T03:15:25;93978.97;;;1.97;100.00
40592;BME280;26301;42.832;23.918;2022-12-05T03:18:32;93998.41;;;1.98;100.00
40592;BME280;26301;42.832;23.918;2022-12-05T03:24:10;93990.59;;;1.92;100.00
40592;BME280;26301;42.832;23.918;2022-12-05T03:29:32;93994.72;;;2.01;100.00
40592;BME280;26301;42.832;23.918;2022-12-05T03:33:02;93995.19;;;2.04;100.00
40592;BME280;26301;42.832;23.918;2022-12-05T03:35:17;93993.63;;;2.03;100.00
40592;BME280;26301;42.832;23.918;2022-12-05T03:37:51;93977.56;;;1.87;100.00
40592;BME280;26301;42.832;23.918;2022-12-05T03:46:10;93958.00;;;1.79;100.00
40592;BME280;26301;42.832;23.918;2022-12-05T03:51:25;93963.72;;;1.81;100.00
40592;BME280;26301;42.832;23.918;2022-12-05T03:53:59;93972.81;;;1.83;100.00
40592;BME280;26301;42.832;23.918;2022-12-05T03:56:33;93965.63;;;1.79;100.00
40592;BME280;26301;42.832;23.918;2022-12-05T04:01:52;93975.81;;;1.79;100.00
40592;BME280;26301;42.832;23.918;2022-12-05T04:04:29;93975.19;;;1.77;100.00
40592;BME280;26301;42.832;23.918;2022-12-05T04:06:57;93977.06;;;1.83;100.00
40592;BME280;26301;42.832;23.918;2022-12-05T04:09:54;94000.31;;;1.96;100.00
40592;BME280;26301;42.832;23.918;2022-12-05T04:12:26;93994.13;;;1.91;100.00
40592;BME280;26301;42.832;23.918;2022-12-05T04:14:59;93988.69;;;1.86;100.00
40592;BME280;26301;42.832;23.918;2022-12-05T04:17:58;94007.50;;;1.93;100.00
40592;BME280;26301;42.832;23.918;2022-12-05T04:20:37;94002.09;;;1.88;100.00
40592;BME280;26301;42.832;23.918;2022-12-05T04:23:25;94001.63;;;1.84;100.00
40592;BME280;26301;42.832;23.918;2022-12-05T04:33:54;94009.09;;;1.94;100.00
40592;BME280;26301;42.832;23.918;2022-12-05T04:36:34;94003.06;;;1.87;100.00
40592;BME280;26301;42.832;23.918;2022-12-05T04:41:38;94001.13;;;1.80;100.00
40592;BME280;26301;42.832;23.918;2022-12-05T04:44:11;93986.50;;;1.66;100.00
40592;BME280;26301;42.832;23.918;2022-12-05T04:46:41;94015.59;;;1.80;100.00
40592;BME280;26301;42.832;23.918;2022-12-05T04:49:13;94014.81;;;1.79;100.00
40592;BME280;26301;42.832;23.918;2022-12-05T04:51:42;94022.78;;;1.85;100.00
40592;BME280;26301;42.832;23.918;2022-12-05T04:54:17;94013.06;;;1.80;100.00
40592;BME280;26301;42.832;23.918;2022-12-05T04:56:44;94025.19;;;1.78;100.00
40592;BME280;26301;42.832;23.918;2022-12-05T04:59:12;94024.69;;;1.82;100.00
40592;BME280;26301;42.832;23.918;2022-12-05T05:01:47;93990.78;;;1.57;100.00
40592;BME280;26301;42.832;23.918;2022-12-05T05:04:26;93995.56;;;1.60;100.00
40592;BME280;26301;42.832;23.918;2022-12-05T05:06:55;94012.91;;;1.73;100.00
40592;BME280;26301;42.832;23.918;2022-12-05T05:09:20;94001.00;;;1.66;100.00
40592;BME280;26301;42.832;23.918;2022-12-05T05:11:46;93994.00;;;1.59;100.00
40592;BME280;26301;42.832;23.918;2022-12-05T05:14:11;94015.00;;;1.70;100.00
40592;BME280;26301;42.832;23.918;2022-12-05T05:16:39;94004.31;;;1.58;100.00
40592;BME280;26301;42.832;23.918;2022-12-05T05:19:09;94005.44;;;1.55;100.00
40592;BME280;26301;42.832;23.918;2022-12-05T05:21:38;94028.03;;;1.67;100.00
40592;BME280;26301;42.832;23.918;2022-12-05T05:24:05;94027.56;;;1.63;100.00
40592;BME280;26301;42.832;23.918;2022-12-05T05:26:33;94020.56;;;1.57;100.00
40592;BME280;26301;42.832;23.918;2022-12-05T05:28:59;93985.06;;;1.31;100.00
40592;BME280;26301;42.832;23.918;2022-12-05T05:31:25;94000.34;;;1.39;100.00
40592;BME280;26301;42.832;23.918;2022-12-05T05:33:52;94002.56;;;1.34;100.00
40592;BME280;26301;42.832;23.918;2022-12-05T05:36:19;94041.56;;;1.51;100.00
40592;BME280;26301;42.832;23.918;2022-12-05T05:38:47;94007.00;;;1.32;100.00
40592;BME280;26301;42.832;23.918;2022-12-05T05:41:15;94029.44;;;1.36;100.00
40592;BME280;26301;42.832;23.918;2022-12-05T05:43:42;94035.97;;;1.39;100.00
40592;BME280;26301;42.832;23.918;2022-12-05T05:46:08;94011.59;;;1.20;100.00
40592;BME280;26301;42.832;23.918;2022-12-05T05:48:34;94033.25;;;1.24;100.00
40592;BME280;26301;42.832;23.918;2022-12-05T05:51:01;94050.91;;;1.34;100.00
40592;BME280;26301;42.832;23.918;2022-12-05T05:53:27;94054.75;;;1.30;100.00
40592;BME280;26301;42.832;23.918;2022-12-05T05:55:53;94040.22;;;1.22;100.00
40592;BME280;26301;42.832;23.918;2022-12-05T05:58:19;94025.75;;;1.14;100.00
40592;BME280;26301;42.832;23.918;2022-12-05T06:00:45;94046.09;;;1.23;100.00
40592;BME280;26301;42.832;23.918;2022-12-05T06:03:10;94040.41;;;1.21;100.00
40592;BME280;26301;42.832;23.918;2022-12-05T06:05:36;94043.56;;;1.14;100.00
40592;BME280;26301;42.832;23.918;2022-12-05T06:08:02;94043.56;;;1.14;100.00
40592;BME280;26301;42.832;23.918;2022-12-05T06:10:28;94059.78;;;1.22;100.00
40592;BME280;26301;42.832;23.918;2022-12-05T06:12:58;94050.88;;;1.18;100.00
40592;BME280;26301;42.832;23.918;2022-12-05T06:15:24;94064.53;;;1.17;100.00
40592;BME280;26301;42.832;23.918;2022-12-05T06:17:50;94031.88;;;0.96;100.00
40592;BME280;26301;42.832;23.918;2022-12-05T06:20:16;94035.56;;;1.01;100.00
40592;BME280;26301;42.832;23.918;2022-12-05T06:22:41;94032.38;;;0.91;100.00
40592;BME280;26301;42.832;23.918;2022-12-05T06:25:07;94070.63;;;1.24;100.00
40592;BME280;26301;42.832;23.918;2022-12-05T06:27:33;94048.63;;;1.06;100.00
40592;BME280;26301;42.832;23.918;2022-12-05T06:29:59;94050.22;;;1.07;100.00
40592;BME280;26301;42.832;23.918;2022-12-05T06:32:27;94048.31;;;1.09;100.00
40592;BME280;26301;42.832;23.918;2022-12-05T06:34:52;94079.88;;;1.33;100.00
40592;BME280;26301;42.832;23.918;2022-12-05T06:37:18;94088.00;;;1.36;100.00
40592;BME280;26301;42.832;23.918;2022-12-05T06:39:44;94060.28;;;1.25;100.00
40592;BME280;26301;42.832;23.918;2022-12-05T06:42:09;94059.31;;;1.26;100.00
40592;BME280;26301;42.832;23.918;2022-12-05T06:44:35;94079.88;;;1.41;100.00
40592;BME280;26301;42.832;23.918;2022-12-05T06:47:01;94085.78;;;1.50;100.00
40592;BME280;26301;42.832;23.918;2022-12-05T06:49:27;94063.19;;;1.39;100.00
40592;BME280;26301;42.832;23.918;2022-12-05T06:51:57;94086.13;;;1.55;100.00
40592;BME280;26301;42.832;23.918;2022-12-05T06:54:23;94095.50;;;1.54;100.00
40592;BME280;26301;42.832;23.918;2022-12-05T06:56:49;94081.50;;;1.42;100.00
40592;BME280;26301;42.832;23.918;2022-12-05T06:59:14;94088.47;;;1.40;100.00
40592;BME280;26301;42.832;23.918;2022-12-05T07:01:40;94091.97;;;1.47;100.00
40592;BME280;26301;42.832;23.918;2022-12-05T07:06:41;94084.53;;;1.54;100.00
40592;BME280;26301;42.832;23.918;2022-12-05T07:09:08;94057.13;;;1.40;100.00
40592;BME280;26301;42.832;23.918;2022-12-05T07:11:33;94071.59;;;1.47;100.00
40592;BME280;26301;42.832;23.918;2022-12-05T07:14:00;94089.47;;;1.64;100.00
40592;BME280;26301;42.832;23.918;2022-12-05T07:16:26;94092.84;;;1.72;100.00
40592;BME280;26301;42.832;23.918;2022-12-05T07:18:52;94082.47;;;1.74;100.00
40592;BME280;26301;42.832;23.918;2022-12-05T07:21:17;94078.81;;;1.76;100.00
40592;BME280;26301;42.832;23.918;2022-12-05T07:23:45;94051.41;;;1.62;100.00
40592;BME280;26301;42.832;23.918;2022-12-05T07:26:18;94044.91;;;1.68;100.00
40592;BME280;26301;42.832;23.918;2022-12-05T07:28:44;94054.47;;;1.74;100.00
40592;BME280;26301;42.832;23.918;2022-12-05T07:31:12;94049.53;;;1.72;100.00
40592;BME280;26301;42.832;23.918;2022-12-05T07:33:38;94083.44;;;1.97;100.00
40592;BME280;26301;42.832;23.918;2022-12-05T07:36:07;94070.88;;;1.88;100.00
40592;BME280;26301;42.832;23.918;2022-12-05T07:38:34;94089.97;;;2.00;100.00
40592;BME280;26301;42.832;23.918;2022-12-05T07:41:06;94073.25;;;1.97;100.00
40592;BME280;26301;42.832;23.918;2022-12-05T07:43:32;94087.28;;;2.18;100.00
40592;BME280;26301;42.832;23.918;2022-12-05T07:46:03;94090.16;;;2.23;100.00
40592;BME280;26301;42.832;23.918;2022-12-05T07:48:29;94056.84;;;2.08;100.00
40592;BME280;26301;42.832;23.918;2022-12-05T07:51:01;94076.09;;;2.35;100.00
40592;BME280;26301;42.832;23.918;2022-12-05T07:53:27;94079.44;;;2.44;100.00
40592;BME280;26301;42.832;23.918;2022-12-05T07:55:53;94090.72;;;2.58;100.00
40592;BME280;26301;42.832;23.918;2022-12-05T07:58:19;94093.78;;;2.53;100.00
40592;BME280;26301;42.832;23.918;2022-12-05T08:00:44;94089.94;;;2.57;100.00
40592;BME280;26301;42.832;23.918;2022-12-05T08:03:10;94078.75;;;2.58;100.00
40592;BME280;26301;42.832;23.918;2022-12-05T08:05:35;94093.56;;;2.71;100.00
40592;BME280;26301;42.832;23.918;2022-12-05T08:08:02;94075.72;;;2.71;100.00
40592;BME280;26301;42.832;23.918;2022-12-05T08:10:27;94094.19;;;2.73;100.00
40592;BME280;26301;42.832;23.918;2022-12-05T08:12:53;94098.34;;;2.74;100.00
40592;BME280;26301;42.832;23.918;2022-12-05T08:15:20;94089.41;;;2.78;100.00
40592;BME280;26301;42.832;23.918;2022-12-05T08:17:45;94058.34;;;2.58;100.00
40592;BME280;26301;42.832;23.918;2022-12-05T08:20:11;94082.88;;;2.75;100.00
40592;BME280;26301;42.832;23.918;2022-12-05T08:22:37;94093.19;;;2.90;100.00
40592;BME280;26301;42.832;23.918;2022-12-05T08:25:03;94076.56;;;2.94;100.00
40592;BME280;26301;42.832;23.918;2022-12-05T08:27:28;94044.81;;;2.58;100.00
40592;BME280;26301;42.832;23.918;2022-12-05T08:29:54;94078.34;;;2.86;100.00
40592;BME280;26301;42.832;23.918;2022-12-05T08:32:20;94073.09;;;2.87;100.00
40592;BME280;26301;42.832;23.918;2022-12-05T08:34:45;94061.16;;;2.80;100.00
40592;BME280;26301;42.832;23.918;2022-12-05T08:37:11;94051.75;;;2.80;100.00
40592;BME280;26301;42.832;23.918;2022-12-05T08:39:37;94076.41;;;3.04;100.00
40592;BME280;26301;42.832;23.918;2022-12-05T08:42:02;94076.41;;;3.04;100.00
40592;BME280;26301;42.832;23.918;2022-12-05T08:44:28;94064.13;;;3.00;100.00
40592;BME280;26301;42.832;23.918;2022-12-05T08:46:53;94083.84;;;3.14;100.00
40592;BME280;26301;42.832;23.918;2022-12-05T08:49:19;94087.19;;;3.14;100.00
40592;BME280;26301;42.832;23.918;2022-12-05T08:51:44;94038.28;;;2.94;100.00
40592;BME280;26301;42.832;23.918;2022-12-05T08:54:11;94073.31;;;3.17;100.00
40592;BME280;26301;42.832;23.918;2022-12-05T08:56:36;94075.88;;;3.09;100.00
40592;BME280;26301;42.832;23.918;2022-12-05T08:59:03;94065.41;;;2.95;100.00
40592;BME280;26301;42.832;23.918;2022-12-05T09:01:29;94052.03;;;2.93;100.00
40592;BME280;26301;42.832;23.918;2022-12-05T09:03:57;94071.22;;;3.12;100.00
40592;BME280;26301;42.832;23.918;2022-12-05T09:06:25;94073.03;;;3.04;100.00
40592;BME280;26301;42.832;23.918;2022-12-05T09:08:59;94042.34;;;2.81;100.00
40592;BME280;26301;42.832;23.918;2022-12-05T09:11:28;94054.38;;;3.03;100.00
40592;BME280;26301;42.832;23.918;2022-12-05T09:13:56;94037.03;;;2.90;100.00
40592;BME280;26301;42.832;23.918;2022-12-05T09:16:25;94042.28;;;2.97;100.00
40592;BME280;26301;42.832;23.918;2022-12-05T09:18:53;94062.75;;;3.20;100.00
40592;BME280;26301;42.832;23.918;2022-12-05T09:21:24;94065.94;;;3.22;100.00
40592;BME280;26301;42.832;23.918;2022-12-05T09:23:51;94059.09;;;3.14;100.00
40592;BME280;26301;42.832;23.918;2022-12-05T09:26:20;94054.78;;;3.15;100.00
40592;BME280;26301;42.832;23.918;2022-12-05T09:28:46;94068.16;;;3.25;100.00
40592;BME280;26301;42.832;23.918;2022-12-05T09:31:14;94059.34;;;3.28;100.00
40592;BME280;26301;42.832;23.918;2022-12-05T09:33:40;93980.44;;;2.87;100.00
40592;BME280;26301;42.832;23.918;2022-12-05T09:36:15;94068.56;;;3.37;100.00
40592;BME280;26301;42.832;23.918;2022-12-05T09:38:41;94057.13;;;3.25;100.00
40592;BME280;26301;42.832;23.918;2022-12-05T09:41:17;94027.22;;;3.10;100.00
40592;BME280;26301;42.832;23.918;2022-12-05T09:47:15;93959.44;;;2.77;100.00
40592;BME280;26301;42.832;23.918;2022-12-05T09:49:48;94054.06;;;3.37;100.00
40592;BME280;26301;42.832;23.918;2022-12-05T09:52:28;94028.59;;;3.21;100.00
40592;BME280;26301;42.832;23.918;2022-12-05T09:55:05;94057.84;;;3.41;100.00
40592;BME280;26301;42.832;23.918;2022-12-05T09:57:38;94054.63;;;3.48;100.00
40592;BME280;26301;42.832;23.918;2022-12-05T10:00:06;94055.06;;;3.51;100.00
40592;BME280;26301;42.832;23.918;2022-12-05T10:02:45;94050.59;;;3.53;100.00
40592;BME280;26301;42.832;23.918;2022-12-05T10:08:16;94050.31;;;3.48;100.00
40592;BME280;26301;42.832;23.918;2022-12-05T10:13:57;94010.97;;;3.34;100.00
40592;BME280;26301;42.832;23.918;2022-12-05T10:16:31;94039.34;;;3.62;100.00
40592;BME280;26301;42.832;23.918;2022-12-05T10:19:02;94042.38;;;3.66;100.00
40592;BME280;26301;42.832;23.918;2022-12-05T10:24:14;94040.00;;;3.64;100.00
40592;BME280;26301;42.832;23.918;2022-12-05T10:27:10;94048.75;;;3.70;100.00
40592;BME280;26301;42.832;23.918;2022-12-05T10:35:23;94043.84;;;3.60;100.00
40592;BME280;26301;42.832;23.918;2022-12-05T10:37:52;93980.88;;;3.21;100.00
40592;BME280;26301;42.832;23.918;2022-12-05T10:40:19;94016.31;;;3.48;100.00
40592;BME280;26301;42.832;23.918;2022-12-05T10:42:46;94035.22;;;3.61;100.00
40592;BME280;26301;42.832;23.918;2022-12-05T10:45:22;94036.00;;;3.62;100.00
40592;BME280;26301;42.832;23.918;2022-12-05T10:47:53;94028.94;;;3.64;100.00
40592;BME280;26301;42.832;23.918;2022-12-05T10:50:31;94037.69;;;3.70;100.00
40592;BME280;26301;42.832;23.918;2022-12-05T10:53:00;94032.25;;;3.73;100.00
40592;BME280;26301;42.832;23.918;2022-12-05T10:55:35;94001.28;;;3.53;100.00
40592;BME280;26301;42.832;23.918;2022-12-05T10:58:12;93946.91;;;3.21;100.00
40592;BME280;26301;42.832;23.918;2022-12-05T11:00:39;94005.47;;;3.46;100.00
40592;BME280;26301;42.832;23.918;2022-12-05T11:03:28;94009.28;;;3.50;100.00
40592;BME280;26301;42.832;23.918;2022-12-05T11:06:02;94016.59;;;3.53;100.00
40592;BME280;26301;42.832;23.918;2022-12-05T11:08:38;93981.06;;;3.20;100.00
40592;BME280;26301;42.832;23.918;2022-12-05T11:11:15;94015.69;;;3.46;100.00
40592;BME280;26301;42.832;23.918;2022-12-05T11:14:02;94016.94;;;3.50;100.00
40592;BME280;26301;42.832;23.918;2022-12-05T11:16:34;93998.31;;;3.41;100.00
40592;BME280;26301;42.832;23.918;2022-12-05T11:19:33;94007.50;;;3.50;100.00
40592;BME280;26301;42.832;23.918;2022-12-05T11:21:59;93982.75;;;3.28;100.00
40592;BME280;26301;42.832;23.918;2022-12-05T11:24:34;93978.16;;;3.23;100.00
40592;BME280;26301;42.832;23.918;2022-12-05T11:27:19;93991.75;;;3.47;100.00
40592;BME280;26301;42.832;23.918;2022-12-05T11:32:24;93981.56;;;3.38;100.00
40592;BME280;26301;42.832;23.918;2022-12-05T11:35:23;93997.28;;;3.50;100.00
40592;BME280;26301;42.832;23.918;2022-12-05T11:37:54;93997.13;;;3.52;100.00
40592;BME280;26301;42.832;23.918;2022-12-05T11:40:52;93969.63;;;3.31;100.00
40592;BME280;26301;42.832;23.918;2022-12-05T11:43:45;93992.09;;;3.43;100.00
40592;BME280;26301;42.832;23.918;2022-12-05T11:52:46;93961.59;;;3.19;100.00
40592;BME280;26301;42.832;23.918;2022-12-05T11:58:21;93984.19;;;3.53;100.00
40592;BME280;26301;42.832;23.918;2022-12-05T12:25:23;93939.75;;;3.39;100.00
40592;BME280;26301;42.832;23.918;2022-12-05T12:28:02;93955.91;;;3.55;100.00
40592;BME280;26301;42.832;23.918;2022-12-05T12:30:41;93949.84;;;3.56;100.00
40592;BME280;26301;42.832;23.918;2022-12-05T12:44:59;93935.84;;;3.66;100.00
40592;BME280;26301;42.832;23.918;2022-12-05T12:52:44;93932.44;;;3.74;100.00
40592;BME280;26301;42.832;23.918;2022-12-05T12:57:54;93927.31;;;3.74;100.00
40592;BME280;26301;42.832;23.918;2022-12-05T13:03:16;93926.25;;;3.69;100.00
40592;BME280;26301;42.832;23.918;2022-12-05T13:05:59;93929.59;;;3.69;100.00
40592;BME280;26301;42.832;23.918;2022-12-05T13:08:38;93917.00;;;3.67;100.00
40592;BME280;26301;42.832;23.918;2022-12-05T13:11:08;93941.09;;;3.73;100.00
40592;BME280;26301;42.832;23.918;2022-12-05T13:13:45;93925.56;;;3.75;100.00
40592;BME280;26301;42.832;23.918;2022-12-05T13:16:42;93908.38;;;3.69;100.00
40592;BME280;26301;42.832;23.918;2022-12-05T13:19:23;93916.75;;;3.77;100.00
40592;BME280;26301;42.832;23.918;2022-12-05T13:21:50;93898.84;;;3.62;100.00
40592;BME280;26301;42.832;23.918;2022-12-05T13:24:18;93922.31;;;3.81;100.00
40592;BME280;26301;42.832;23.918;2022-12-05T13:26:48;93907.69;;;3.75;100.00
40592;BME280;26301;42.832;23.918;2022-12-05T13:29:20;93876.28;;;3.66;100.00
40592;BME280;26301;42.832;23.918;2022-12-05T13:31:48;93903.38;;;3.90;100.00
40592;BME280;26301;42.832;23.918;2022-12-05T13:34:42;93904.69;;;3.86;100.00
40592;BME280;26301;42.832;23.918;2022-12-05T13:37:22;93886.78;;;3.71;100.00
40592;BME280;26301;42.832;23.918;2022-12-05T13:43:07;93898.50;;;3.65;100.00
40592;BME280;26301;42.832;23.918;2022-12-05T13:45:34;93869.84;;;3.40;100.00
40592;BME280;26301;42.832;23.918;2022-12-05T13:48:25;93909.06;;;3.62;100.00
40592;BME280;26301;42.832;23.918;2022-12-05T13:51:07;93872.41;;;3.40;100.00
40592;BME280;26301;42.832;23.918;2022-12-05T13:53:41;93912.94;;;3.58;100.00
40592;BME280;26301;42.832;23.918;2022-12-05T13:58:56;93902.44;;;3.53;100.00
40592;BME280;26301;42.832;23.918;2022-12-05T14:06:54;93914.44;;;3.53;100.00
40592;BME280;26301;42.832;23.918;2022-12-05T14:09:48;93877.56;;;3.32;100.00
40592;BME280;26301;42.832;23.918;2022-12-05T14:17:26;93913.16;;;3.49;100.00
40592;BME280;26301;42.832;23.918;2022-12-05T14:20:04;93901.97;;;3.35;100.00
40592;BME280;26301;42.832;23.918;2022-12-05T14:22:41;93933.72;;;3.55;100.00
40592;BME280;26301;42.832;23.918;2022-12-05T14:25:21;93932.03;;;3.48;100.00
40592;BME280;26301;42.832;23.918;2022-12-05T14:27:59;93926.13;;;3.47;100.00
40592;BME280;26301;42.832;23.918;2022-12-05T14:30:40;93930.16;;;3.41;100.00
40592;BME280;26301;42.832;23.918;2022-12-05T14:33:15;93853.66;;;2.87;100.00
40592;BME280;26301;42.832;23.918;2022-12-05T14:35:45;93933.50;;;3.42;100.00
40592;BME280;26301;42.832;23.918;2022-12-05T14:38:28;93887.91;;;3.16;100.00
40592;BME280;26301;42.832;23.918;2022-12-05T14:40:56;93902.19;;;3.25;100.00
40592;BME280;26301;42.832;23.918;2022-12-05T14:43:36;93911.59;;;3.25;100.00
40592;BME280;26301;42.832;23.918;2022-12-05T14:46:06;93932.72;;;3.41;100.00
40592;BME280;26301;42.832;23.918;2022-12-05T14:48:35;93908.25;;;3.24;100.00
40592;BME280;26301;42.832;23.918;2022-12-05T14:54:17;93929.41;;;3.33;100.00
40592;BME280;26301;42.832;23.918;2022-12-05T14:56:47;93917.34;;;3.27;100.00
40592;BME280;26301;42.832;23.918;2022-12-05T14:59:31;93936.25;;;3.40;100.00
40592;BME280;26301;42.832;23.918;2022-12-05T15:02:00;93932.25;;;3.38;100.00
40592;BME280;26301;42.832;23.918;2022-12-05T15:04:30;93933.22;;;3.37;100.00
40592;BME280;26301;42.832;23.918;2022-12-05T15:06:59;93925.28;;;3.32;100.00
40592;BME280;26301;42.832;23.918;2022-12-05T15:11:58;93932.94;;;3.32;100.00
40592;BME280;26301;42.832;23.918;2022-12-05T15:14:27;93921.31;;;3.29;100.00
40592;BME280;26301;42.832;23.918;2022-12-05T15:16:54;93894.50;;;3.10;100.00
40592;BME280;26301;42.832;23.918;2022-12-05T15:19:56;93923.34;;;3.34;100.00
40592;BME280;26301;42.832;23.918;2022-12-05T15:22:25;93885.41;;;3.08;100.00
40592;BME280;26301;42.832;23.918;2022-12-05T15:24:52;93922.72;;;3.32;100.00
40592;BME280;26301;42.832;23.918;2022-12-05T15:27:19;93905.69;;;3.24;100.00
40592;BME280;26301;42.832;23.918;2022-12-05T15:29:44;93884.09;;;3.12;100.00
40592;BME280;26301;42.832;23.918;2022-12-05T15:34:46;93909.34;;;3.30;100.00
40592;BME280;26301;42.832;23.918;2022-12-05T15:37:20;93911.09;;;3.29;100.00
40592;BME280;26301;42.832;23.918;2022-12-05T15:39:51;93887.00;;;3.09;100.00
40592;BME280;26301;42.832;23.918;2022-12-05T15:42:23;93907.91;;;3.27;100.00
40592;BME280;26301;42.832;23.918;2022-12-05T15:44:49;93899.38;;;3.20;100.00